sensor_id;sensor_type;location;lat;lon;timestamp;P1;durP1;ratioP1;P2;durP2;ratioP2
23743;SDS011;12052;53.478;10.182;2023-04-15T00:00:11;7.93;;;3.88;;
23743;SDS011;12052;53.478;10.182;2023-04-15T00:02:37;8.68;;;4.22;;
23743;SDS011;12052;53.478;10.182;2023-04-15T00:05:03;9.05;;;4.07;;
23743;SDS011;12052;53.478;10.182;2023-04-15T00:07:29;6.13;;;3.95;;
23743;SDS011;12052;53.478;10.182;2023-04-15T00:09:55;7.45;;;4.25;;
23743;SDS011;12052;53.478;10.182;2023-04-15T00:12:26;7.80;;;4.07;;
23743;SDS011;12052;53.478;10.182;2023-04-15T00:14:52;7.10;;;3.90;;
23743;SDS011;12052;53.478;10.182;2023-04-15T00:17:18;7.78;;;4.53;;
23743;SDS011;12052;53.478;10.182;2023-04-15T00:19:44;8.60;;;5.20;;
23743;SDS011;12052;53.478;10.182;2023-04-15T00:22:10;7.93;;;4.60;;
23743;SDS011;12052;53.478;10.182;2023-04-15T00:24:36;7.90;;;4.60;;
23743;SDS011;12052;53.478;10.182;2023-04-15T00:27:02;7.45;;;4.28;;
23743;SDS011;12052;53.478;10.182;2023-04-15T00:29:28;7.43;;;4.35;;
23743;SDS011;12052;53.478;10.182;2023-04-15T00:31:54;9.25;;;4.35;;
23743;SDS011;12052;53.478;10.182;2023-04-15T00:34:23;7.88;;;4.50;;
23743;SDS011;12052;53.478;10.182;2023-04-15T00:36:49;9.70;;;4.45;;
23743;SDS011;12052;53.478;10.182;2023-04-15T00:39:18;8.77;;;4.53;;
23743;SDS011;12052;53.478;10.182;2023-04-15T00:41:44;8.38;;;4.43;;
23743;SDS011;12052;53.478;10.182;2023-04-15T00:44:10;9.27;;;4.60;;
23743;SDS011;12052;53.478;10.182;2023-04-15T00:46:36;7.03;;;4.20;;
23743;SDS011;12052;53.478;10.182;2023-04-15T00:49:06;8.25;;;4.20;;
23743;SDS011;12052;53.478;10.182;2023-04-15T00:51:34;6.40;;;4.03;;
23743;SDS011;12052;53.478;10.182;2023-04-15T00:54:01;7.95;;;4.40;;
23743;SDS011;12052;53.478;10.182;2023-04-15T00:56:28;8.05;;;4.63;;
23743;SDS011;12052;53.478;10.182;2023-04-15T00:58:54;9.27;;;5.00;;
23743;SDS011;12052;53.478;10.182;2023-04-15T01:01:20;9.07;;;4.93;;
23743;SDS011;12052;53.478;10.182;2023-04-15T01:03:47;11.43;;;4.90;;
23743;SDS011;12052;53.478;10.182;2023-04-15T01:06:14;9.18;;;4.95;;
23743;SDS011;12052;53.478;10.182;2023-04-15T01:08:40;10.15;;;4.35;;
23743;SDS011;12052;53.478;10.182;2023-04-15T01:11:06;8.40;;;4.50;;
23743;SDS011;12052;53.478;10.182;2023-04-15T01:13:33;6.65;;;4.40;;
23743;SDS011;12052;53.478;10.182;2023-04-15T01:16:00;8.55;;;4.20;;
23743;SDS011;12052;53.478;10.182;2023-04-15T01:18:27;10.43;;;4.40;;
23743;SDS011;12052;53.478;10.182;2023-04-15T01:20:53;9.07;;;4.80;;
23743;SDS011;12052;53.478;10.182;2023-04-15T01:23:19;10.10;;;4.97;;
23743;SDS011;12052;53.478;10.182;2023-04-15T01:25:46;8.10;;;4.30;;
23743;SDS011;12052;53.478;10.182;2023-04-15T01:28:13;8.18;;;4.65;;
23743;SDS011;12052;53.478;10.182;2023-04-15T01:30:40;7.57;;;4.65;;
23743;SDS011;12052;53.478;10.182;2023-04-15T01:33:05;9.50;;;4.95;;
23743;SDS011;12052;53.478;10.182;2023-04-15T01:35:31;10.10;;;4.90;;
23743;SDS011;12052;53.478;10.182;2023-04-15T01:38:07;10.93;;;4.35;;
23743;SDS011;12052;53.478;10.182;2023-04-15T01:40:34;8.85;;;4.80;;
23743;SDS011;12052;53.478;10.182;2023-04-15T01:43:00;9.20;;;4.90;;
23743;SDS011;12052;53.478;10.182;2023-04-15T01:45:26;9.55;;;4.85;;
23743;SDS011;12052;53.478;10.182;2023-04-15T01:47:52;8.45;;;4.72;;
23743;SDS011;12052;53.478;10.182;2023-04-15T01:50:18;10.27;;;5.28;;
23743;SDS011;12052;53.478;10.182;2023-04-15T01:52:44;8.45;;;4.35;;
23743;SDS011;12052;53.478;10.182;2023-04-15T01:55:11;10.85;;;5.32;;
23743;SDS011;12052;53.478;10.182;2023-04-15T01:57:37;10.80;;;5.63;;
23743;SDS011;12052;53.478;10.182;2023-04-15T02:00:03;11.63;;;4.55;;
23743;SDS011;12052;53.478;10.182;2023-04-15T02:02:29;10.02;;;5.00;;
23743;SDS011;12052;53.478;10.182;2023-04-15T02:04:55;10.48;;;5.18;;
23743;SDS011;12052;53.478;10.182;2023-04-15T02:07:20;9.02;;;5.28;;
23743;SDS011;12052;53.478;10.182;2023-04-15T02:09:46;9.55;;;5.50;;
23743;SDS011;12052;53.478;10.182;2023-04-15T02:12:12;10.38;;;5.40;;
23743;SDS011;12052;53.478;10.182;2023-04-15T02:14:37;13.77;;;5.57;;
23743;SDS011;12052;53.478;10.182;2023-04-15T02:17:03;15.70;;;5.55;;
23743;SDS011;12052;53.478;10.182;2023-04-15T02:19:35;9.68;;;5.22;;
23743;SDS011;12052;53.478;10.182;2023-04-15T02:22:00;10.50;;;5.68;;
23743;SDS011;12052;53.478;10.182;2023-04-15T02:24:26;11.23;;;5.65;;
23743;SDS011;12052;53.478;10.182;2023-04-15T02:26:54;10.60;;;5.68;;
23743;SDS011;12052;53.478;10.182;2023-04-15T02:29:20;10.65;;;6.13;;
23743;SDS011;12052;53.478;10.182;2023-04-15T02:31:47;14.77;;;6.55;;
23743;SDS011;12052;53.478;10.182;2023-04-15T02:34:12;13.25;;;6.40;;
23743;SDS011;12052;53.478;10.182;2023-04-15T02:36:38;13.63;;;6.50;;
23743;SDS011;12052;53.478;10.182;2023-04-15T02:39:04;15.80;;;6.90;;
23743;SDS011;12052;53.478;10.182;2023-04-15T02:41:31;14.70;;;6.47;;
23743;SDS011;12052;53.478;10.182;2023-04-15T02:43:56;17.92;;;7.45;;
23743;SDS011;12052;53.478;10.182;2023-04-15T02:46:22;18.20;;;6.88;;
23743;SDS011;12052;53.478;10.182;2023-04-15T02:48:48;17.40;;;7.20;;
23743;SDS011;12052;53.478;10.182;2023-04-15T02:53:40;18.02;;;7.68;;
23743;SDS011;12052;53.478;10.182;2023-04-15T02:56:06;15.35;;;7.05;;
23743;SDS011;12052;53.478;10.182;2023-04-15T02:58:32;16.50;;;7.85;;
23743;SDS011;12052;53.478;10.182;2023-04-15T03:00:59;16.33;;;8.30;;
23743;SDS011;12052;53.478;10.182;2023-04-15T03:03:24;18.73;;;7.70;;
23743;SDS011;12052;53.478;10.182;2023-04-15T03:05:52;21.60;;;8.85;;
23743;SDS011;12052;53.478;10.182;2023-04-15T03:08:17;19.63;;;8.05;;
23743;SDS011;12052;53.478;10.182;2023-04-15T03:10:43;17.95;;;8.98;;
23743;SDS011;12052;53.478;10.182;2023-04-15T03:13:08;20.25;;;8.43;;
23743;SDS011;12052;53.478;10.182;2023-04-15T03:15:34;22.45;;;9.15;;
23743;SDS011;12052;53.478;10.182;2023-04-15T03:18:00;24.52;;;10.07;;
23743;SDS011;12052;53.478;10.182;2023-04-15T03:20:25;23.42;;;9.82;;
23743;SDS011;12052;53.478;10.182;2023-04-15T03:22:51;24.20;;;8.52;;
23743;SDS011;12052;53.478;10.182;2023-04-15T03:25:17;24.13;;;9.38;;
23743;SDS011;12052;53.478;10.182;2023-04-15T03:27:42;22.45;;;9.80;;
23743;SDS011;12052;53.478;10.182;2023-04-15T03:30:08;24.88;;;10.00;;
23743;SDS011;12052;53.478;10.182;2023-04-15T03:32:34;25.10;;;10.15;;
23743;SDS011;12052;53.478;10.182;2023-04-15T03:35:00;25.48;;;10.43;;
23743;SDS011;12052;53.478;10.182;2023-04-15T03:37:25;26.08;;;10.38;;
23743;SDS011;12052;53.478;10.182;2023-04-15T03:39:51;26.75;;;9.70;;
23743;SDS011;12052;53.478;10.182;2023-04-15T03:42:17;23.88;;;10.88;;
23743;SDS011;12052;53.478;10.182;2023-04-15T03:44:42;23.02;;;9.88;;
23743;SDS011;12052;53.478;10.182;2023-04-15T03:47:08;28.52;;;10.93;;
23743;SDS011;12052;53.478;10.182;2023-04-15T03:49:34;27.05;;;11.27;;
23743;SDS011;12052;53.478;10.182;2023-04-15T03:52:00;23.23;;;9.80;;
23743;SDS011;12052;53.478;10.182;2023-04-15T03:54:26;28.73;;;11.68;;
23743;SDS011;12052;53.478;10.182;2023-04-15T03:56:51;29.88;;;11.00;;
23743;SDS011;12052;53.478;10.182;2023-04-15T03:59:17;27.75;;;10.90;;
23743;SDS011;12052;53.478;10.182;2023-04-15T04:01:42;28.85;;;11.27;;
23743;SDS011;12052;53.478;10.182;2023-04-15T04:04:08;28.50;;;11.20;;
23743;SDS011;12052;53.478;10.182;2023-04-15T04:06:34;25.83;;;9.85;;
23743;SDS011;12052;53.478;10.182;2023-04-15T04:08:59;25.17;;;10.25;;
23743;SDS011;12052;53.478;10.182;2023-04-15T04:11:25;30.92;;;10.73;;
23743;SDS011;12052;53.478;10.182;2023-04-15T04:13:52;29.83;;;11.07;;
23743;SDS011;12052;53.478;10.182;2023-04-15T04:16:18;30.45;;;12.45;;
23743;SDS011;12052;53.478;10.182;2023-04-15T04:18:43;25.23;;;10.27;;
23743;SDS011;12052;53.478;10.182;2023-04-15T04:21:09;25.25;;;11.35;;
23743;SDS011;12052;53.478;10.182;2023-04-15T04:23:35;30.38;;;10.82;;
23743;SDS011;12052;53.478;10.182;2023-04-15T04:26:01;27.25;;;11.73;;
23743;SDS011;12052;53.478;10.182;2023-04-15T04:28:26;28.35;;;12.02;;
23743;SDS011;12052;53.478;10.182;2023-04-15T04:30:52;31.80;;;12.35;;
23743;SDS011;12052;53.478;10.182;2023-04-15T04:33:18;31.77;;;11.98;;
23743;SDS011;12052;53.478;10.182;2023-04-15T04:35:43;32.47;;;11.73;;
23743;SDS011;12052;53.478;10.182;2023-04-15T04:38:09;33.22;;;12.60;;
23743;SDS011;12052;53.478;10.182;2023-04-15T04:40:35;32.88;;;12.45;;
23743;SDS011;12052;53.478;10.182;2023-04-15T04:43:01;41.65;;;14.48;;
23743;SDS011;12052;53.478;10.182;2023-04-15T04:45:26;41.10;;;13.57;;
23743;SDS011;12052;53.478;10.182;2023-04-15T04:47:52;41.67;;;14.50;;
23743;SDS011;12052;53.478;10.182;2023-04-15T04:50:18;39.22;;;14.13;;
23743;SDS011;12052;53.478;10.182;2023-04-15T04:52:43;44.67;;;14.55;;
23743;SDS011;12052;53.478;10.182;2023-04-15T04:55:09;43.53;;;14.73;;
23743;SDS011;12052;53.478;10.182;2023-04-15T04:57:34;42.40;;;14.45;;
23743;SDS011;12052;53.478;10.182;2023-04-15T05:00:00;39.33;;;15.25;;
23743;SDS011;12052;53.478;10.182;2023-04-15T05:02:28;47.78;;;15.32;;
23743;SDS011;12052;53.478;10.182;2023-04-15T05:04:54;43.63;;;15.13;;
23743;SDS011;12052;53.478;10.182;2023-04-15T05:07:20;46.38;;;16.88;;
23743;SDS011;12052;53.478;10.182;2023-04-15T05:09:46;55.47;;;17.00;;
23743;SDS011;12052;53.478;10.182;2023-04-15T05:12:12;48.70;;;17.20;;
23743;SDS011;12052;53.478;10.182;2023-04-15T05:14:40;58.60;;;18.20;;
23743;SDS011;12052;53.478;10.182;2023-04-15T05:17:06;48.00;;;15.93;;
23743;SDS011;12052;53.478;10.182;2023-04-15T05:19:32;55.72;;;19.55;;
23743;SDS011;12052;53.478;10.182;2023-04-15T05:21:59;56.60;;;18.90;;
23743;SDS011;12052;53.478;10.182;2023-04-15T05:24:25;58.35;;;20.15;;
23743;SDS011;12052;53.478;10.182;2023-04-15T05:26:51;53.75;;;20.23;;
23743;SDS011;12052;53.478;10.182;2023-04-15T05:29:16;56.10;;;19.77;;
23743;SDS011;12052;53.478;10.182;2023-04-15T05:31:42;58.83;;;20.00;;
23743;SDS011;12052;53.478;10.182;2023-04-15T05:34:08;59.65;;;22.08;;
23743;SDS011;12052;53.478;10.182;2023-04-15T05:36:34;68.00;;;22.67;;
23743;SDS011;12052;53.478;10.182;2023-04-15T05:38:59;63.10;;;22.20;;
23743;SDS011;12052;53.478;10.182;2023-04-15T05:41:25;57.03;;;21.55;;
23743;SDS011;12052;53.478;10.182;2023-04-15T05:43:51;68.65;;;22.98;;
23743;SDS011;12052;53.478;10.182;2023-04-15T05:46:17;59.10;;;22.30;;
23743;SDS011;12052;53.478;10.182;2023-04-15T05:48:42;64.10;;;23.08;;
23743;SDS011;12052;53.478;10.182;2023-04-15T05:51:08;66.45;;;23.77;;
23743;SDS011;12052;53.478;10.182;2023-04-15T05:53:34;63.95;;;23.23;;
23743;SDS011;12052;53.478;10.182;2023-04-15T05:55:59;60.80;;;23.48;;
23743;SDS011;12052;53.478;10.182;2023-04-15T05:58:25;72.07;;;23.80;;
23743;SDS011;12052;53.478;10.182;2023-04-15T06:00:51;65.63;;;23.85;;
23743;SDS011;12052;53.478;10.182;2023-04-15T06:03:17;64.70;;;25.10;;
23743;SDS011;12052;53.478;10.182;2023-04-15T06:05:42;66.90;;;23.13;;
23743;SDS011;12052;53.478;10.182;2023-04-15T06:08:09;66.40;;;24.98;;
23743;SDS011;12052;53.478;10.182;2023-04-15T06:10:35;65.15;;;23.88;;
23743;SDS011;12052;53.478;10.182;2023-04-15T06:13:01;75.95;;;24.50;;
23743;SDS011;12052;53.478;10.182;2023-04-15T06:15:31;72.05;;;25.73;;
23743;SDS011;12052;53.478;10.182;2023-04-15T06:17:56;79.30;;;26.08;;
23743;SDS011;12052;53.478;10.182;2023-04-15T06:20:22;65.93;;;24.35;;
23743;SDS011;12052;53.478;10.182;2023-04-15T06:22:48;71.72;;;25.13;;
23743;SDS011;12052;53.478;10.182;2023-04-15T06:25:13;78.53;;;26.95;;
23743;SDS011;12052;53.478;10.182;2023-04-15T06:27:39;72.88;;;25.95;;
23743;SDS011;12052;53.478;10.182;2023-04-15T06:30:05;77.60;;;25.45;;
23743;SDS011;12052;53.478;10.182;2023-04-15T06:32:31;76.25;;;26.98;;
23743;SDS011;12052;53.478;10.182;2023-04-15T06:34:57;68.82;;;26.08;;
23743;SDS011;12052;53.478;10.182;2023-04-15T06:37:23;70.75;;;24.55;;
23743;SDS011;12052;53.478;10.182;2023-04-15T06:39:49;75.70;;;26.73;;
23743;SDS011;12052;53.478;10.182;2023-04-15T06:42:14;67.65;;;25.13;;
23743;SDS011;12052;53.478;10.182;2023-04-15T06:44:40;82.88;;;29.20;;
23743;SDS011;12052;53.478;10.182;2023-04-15T06:47:06;75.45;;;27.17;;
23743;SDS011;12052;53.478;10.182;2023-04-15T06:49:31;74.80;;;26.15;;
23743;SDS011;12052;53.478;10.182;2023-04-15T06:51:57;74.60;;;26.50;;
23743;SDS011;12052;53.478;10.182;2023-04-15T06:54:24;78.13;;;26.08;;
23743;SDS011;12052;53.478;10.182;2023-04-15T06:56:50;80.75;;;28.13;;
23743;SDS011;12052;53.478;10.182;2023-04-15T06:59:16;77.68;;;27.13;;
23743;SDS011;12052;53.478;10.182;2023-04-15T07:01:42;78.18;;;26.08;;
23743;SDS011;12052;53.478;10.182;2023-04-15T07:04:07;78.03;;;27.55;;
23743;SDS011;12052;53.478;10.182;2023-04-15T07:06:33;74.15;;;27.30;;
23743;SDS011;12052;53.478;10.182;2023-04-15T07:08:59;64.88;;;25.77;;
23743;SDS011;12052;53.478;10.182;2023-04-15T07:11:25;77.03;;;26.55;;
23743;SDS011;12052;53.478;10.182;2023-04-15T07:13:51;75.65;;;26.70;;
23743;SDS011;12052;53.478;10.182;2023-04-15T07:16:17;75.22;;;27.98;;
23743;SDS011;12052;53.478;10.182;2023-04-15T07:18:43;79.32;;;27.70;;
23743;SDS011;12052;53.478;10.182;2023-04-15T07:21:08;77.85;;;29.23;;
23743;SDS011;12052;53.478;10.182;2023-04-15T07:23:34;75.90;;;28.95;;
23743;SDS011;12052;53.478;10.182;2023-04-15T07:26:00;73.35;;;27.30;;
23743;SDS011;12052;53.478;10.182;2023-04-15T07:28:26;73.55;;;27.10;;
23743;SDS011;12052;53.478;10.182;2023-04-15T07:30:52;84.18;;;28.15;;
23743;SDS011;12052;53.478;10.182;2023-04-15T07:33:17;80.63;;;27.67;;
23743;SDS011;12052;53.478;10.182;2023-04-15T07:35:43;70.93;;;26.08;;
23743;SDS011;12052;53.478;10.182;2023-04-15T07:38:09;69.20;;;27.15;;
23743;SDS011;12052;53.478;10.182;2023-04-15T07:40:37;68.05;;;27.20;;
23743;SDS011;12052;53.478;10.182;2023-04-15T07:43:03;74.38;;;28.63;;
23743;SDS011;12052;53.478;10.182;2023-04-15T07:45:29;76.63;;;28.05;;
23743;SDS011;12052;53.478;10.182;2023-04-15T07:47:55;73.55;;;27.65;;
23743;SDS011;12052;53.478;10.182;2023-04-15T07:50:21;72.55;;;28.52;;
23743;SDS011;12052;53.478;10.182;2023-04-15T07:52:47;78.05;;;28.35;;
23743;SDS011;12052;53.478;10.182;2023-04-15T07:55:15;73.47;;;27.80;;
23743;SDS011;12052;53.478;10.182;2023-04-15T07:57:43;82.07;;;30.13;;
23743;SDS011;12052;53.478;10.182;2023-04-15T08:00:09;68.35;;;30.05;;
23743;SDS011;12052;53.478;10.182;2023-04-15T08:02:35;74.53;;;28.02;;
23743;SDS011;12052;53.478;10.182;2023-04-15T08:05:01;83.55;;;28.55;;
23743;SDS011;12052;53.478;10.182;2023-04-15T08:07:28;74.43;;;28.98;;
23743;SDS011;12052;53.478;10.182;2023-04-15T08:09:54;73.57;;;29.23;;
23743;SDS011;12052;53.478;10.182;2023-04-15T08:12:19;74.85;;;27.65;;
23743;SDS011;12052;53.478;10.182;2023-04-15T08:14:45;75.05;;;29.90;;
23743;SDS011;12052;53.478;10.182;2023-04-15T08:17:11;77.43;;;28.98;;
23743;SDS011;12052;53.478;10.182;2023-04-15T08:19:37;72.68;;;28.60;;
23743;SDS011;12052;53.478;10.182;2023-04-15T08:22:02;76.07;;;29.33;;
23743;SDS011;12052;53.478;10.182;2023-04-15T08:24:29;70.45;;;28.65;;
23743;SDS011;12052;53.478;10.182;2023-04-15T08:26:55;78.38;;;29.85;;
23743;SDS011;12052;53.478;10.182;2023-04-15T08:29:21;71.32;;;28.17;;
23743;SDS011;12052;53.478;10.182;2023-04-15T08:31:47;81.88;;;28.55;;
23743;SDS011;12052;53.478;10.182;2023-04-15T08:34:13;78.68;;;29.67;;
23743;SDS011;12052;53.478;10.182;2023-04-15T08:36:39;67.45;;;28.20;;
23743;SDS011;12052;53.478;10.182;2023-04-15T08:39:05;68.65;;;26.77;;
23743;SDS011;12052;53.478;10.182;2023-04-15T08:41:36;68.05;;;28.67;;
23743;SDS011;12052;53.478;10.182;2023-04-15T08:44:03;74.93;;;27.77;;
23743;SDS011;12052;53.478;10.182;2023-04-15T08:46:32;73.65;;;29.90;;
23743;SDS011;12052;53.478;10.182;2023-04-15T08:49:02;70.82;;;28.38;;
23743;SDS011;12052;53.478;10.182;2023-04-15T08:51:29;78.60;;;29.48;;
23743;SDS011;12052;53.478;10.182;2023-04-15T08:53:55;67.65;;;28.45;;
23743;SDS011;12052;53.478;10.182;2023-04-15T08:56:25;72.18;;;29.95;;
23743;SDS011;12052;53.478;10.182;2023-04-15T08:58:55;72.75;;;29.80;;
23743;SDS011;12052;53.478;10.182;2023-04-15T09:01:21;75.10;;;29.42;;
23743;SDS011;12052;53.478;10.182;2023-04-15T09:03:47;74.32;;;30.75;;
23743;SDS011;12052;53.478;10.182;2023-04-15T09:06:15;70.90;;;29.65;;
23743;SDS011;12052;53.478;10.182;2023-04-15T09:08:41;71.38;;;27.13;;
23743;SDS011;12052;53.478;10.182;2023-04-15T09:11:07;70.10;;;27.63;;
23743;SDS011;12052;53.478;10.182;2023-04-15T09:13:33;70.60;;;27.77;;
23743;SDS011;12052;53.478;10.182;2023-04-15T09:16:02;79.60;;;30.48;;
23743;SDS011;12052;53.478;10.182;2023-04-15T09:18:30;71.72;;;29.38;;
23743;SDS011;12052;53.478;10.182;2023-04-15T09:21:06;78.95;;;28.58;;
23743;SDS011;12052;53.478;10.182;2023-04-15T09:23:35;69.32;;;27.15;;
23743;SDS011;12052;53.478;10.182;2023-04-15T09:26:05;70.38;;;28.55;;
23743;SDS011;12052;53.478;10.182;2023-04-15T09:28:31;64.00;;;28.20;;
23743;SDS011;12052;53.478;10.182;2023-04-15T09:30:57;77.00;;;28.30;;
23743;SDS011;12052;53.478;10.182;2023-04-15T09:33:24;70.53;;;28.27;;
23743;SDS011;12052;53.478;10.182;2023-04-15T09:35:59;69.78;;;27.63;;
23743;SDS011;12052;53.478;10.182;2023-04-15T09:38:29;62.10;;;27.20;;
23743;SDS011;12052;53.478;10.182;2023-04-15T09:40:56;61.40;;;26.90;;
23743;SDS011;12052;53.478;10.182;2023-04-15T09:43:22;53.67;;;24.52;;
23743;SDS011;12052;53.478;10.182;2023-04-15T09:46:09;54.90;;;25.20;;
23743;SDS011;12052;53.478;10.182;2023-04-15T09:48:35;54.53;;;25.65;;
23743;SDS011;12052;53.478;10.182;2023-04-15T09:51:02;57.30;;;24.80;;
23743;SDS011;12052;53.478;10.182;2023-04-15T09:53:27;53.42;;;25.13;;
23743;SDS011;12052;53.478;10.182;2023-04-15T09:55:54;52.30;;;24.10;;
23743;SDS011;12052;53.478;10.182;2023-04-15T09:58:25;43.70;;;21.75;;
23743;SDS011;12052;53.478;10.182;2023-04-15T10:00:52;46.97;;;22.77;;
23743;SDS011;12052;53.478;10.182;2023-04-15T10:03:20;43.53;;;20.88;;
23743;SDS011;12052;53.478;10.182;2023-04-15T10:05:57;43.22;;;22.73;;
23743;SDS011;12052;53.478;10.182;2023-04-15T10:08:28;42.88;;;20.60;;
23743;SDS011;12052;53.478;10.182;2023-04-15T10:10:56;44.28;;;21.40;;
23743;SDS011;12052;53.478;10.182;2023-04-15T10:13:23;40.25;;;19.80;;
23743;SDS011;12052;53.478;10.182;2023-04-15T10:15:51;40.03;;;19.20;;
23743;SDS011;12052;53.478;10.182;2023-04-15T10:18:22;34.60;;;18.55;;
23743;SDS011;12052;53.478;10.182;2023-04-15T10:20:50;37.25;;;19.50;;
23743;SDS011;12052;53.478;10.182;2023-04-15T10:23:18;38.90;;;18.25;;
23743;SDS011;12052;53.478;10.182;2023-04-15T10:25:48;37.78;;;18.88;;
23743;SDS011;12052;53.478;10.182;2023-04-15T10:28:18;34.03;;;16.90;;
23743;SDS011;12052;53.478;10.182;2023-04-15T10:30:44;35.55;;;17.80;;
23743;SDS011;12052;53.478;10.182;2023-04-15T10:33:12;31.63;;;16.73;;
23743;SDS011;12052;53.478;10.182;2023-04-15T10:35:41;31.00;;;16.48;;
23743;SDS011;12052;53.478;10.182;2023-04-15T10:38:30;36.75;;;16.90;;
23743;SDS011;12052;53.478;10.182;2023-04-15T10:46:45;31.58;;;14.98;;
23743;SDS011;12052;53.478;10.182;2023-04-15T10:49:15;27.58;;;15.30;;
23743;SDS011;12052;53.478;10.182;2023-04-15T10:51:42;30.90;;;16.60;;
23743;SDS011;12052;53.478;10.182;2023-04-15T10:54:14;32.83;;;15.15;;
23743;SDS011;12052;53.478;10.182;2023-04-15T10:59:30;27.27;;;15.07;;
23743;SDS011;12052;53.478;10.182;2023-04-15T11:02:15;25.90;;;14.52;;
23743;SDS011;12052;53.478;10.182;2023-04-15T11:04:54;30.02;;;14.88;;
23743;SDS011;12052;53.478;10.182;2023-04-15T11:07:32;30.35;;;14.88;;
23743;SDS011;12052;53.478;10.182;2023-04-15T11:09:58;28.95;;;15.50;;
23743;SDS011;12052;53.478;10.182;2023-04-15T11:12:32;27.73;;;14.77;;
23743;SDS011;12052;53.478;10.182;2023-04-15T11:15:23;33.78;;;15.55;;
23743;SDS011;12052;53.478;10.182;2023-04-15T11:18:09;30.15;;;14.75;;
23743;SDS011;12052;53.478;10.182;2023-04-15T11:20:52;26.92;;;14.00;;
23743;SDS011;12052;53.478;10.182;2023-04-15T11:23:39;26.23;;;15.05;;
23743;SDS011;12052;53.478;10.182;2023-04-15T11:26:08;23.80;;;14.50;;
23743;SDS011;12052;53.478;10.182;2023-04-15T11:28:36;29.30;;;14.55;;
23743;SDS011;12052;53.478;10.182;2023-04-15T11:31:05;30.15;;;14.43;;
23743;SDS011;12052;53.478;10.182;2023-04-15T11:33:35;25.58;;;14.27;;
23743;SDS011;12052;53.478;10.182;2023-04-15T11:36:02;26.45;;;14.60;;
23743;SDS011;12052;53.478;10.182;2023-04-15T11:38:28;21.38;;;12.80;;
23743;SDS011;12052;53.478;10.182;2023-04-15T11:40:54;26.83;;;14.05;;
23743;SDS011;12052;53.478;10.182;2023-04-15T11:43:20;23.27;;;13.52;;
23743;SDS011;12052;53.478;10.182;2023-04-15T11:45:57;37.03;;;14.60;;
23743;SDS011;12052;53.478;10.182;2023-04-15T11:48:24;24.98;;;14.07;;
23743;SDS011;12052;53.478;10.182;2023-04-15T11:50:55;26.27;;;15.00;;
23743;SDS011;12052;53.478;10.182;2023-04-15T11:53:39;24.67;;;13.30;;
23743;SDS011;12052;53.478;10.182;2023-04-15T11:56:05;22.10;;;13.98;;
23743;SDS011;12052;53.478;10.182;2023-04-15T11:58:33;23.17;;;13.70;;
23743;SDS011;12052;53.478;10.182;2023-04-15T12:01:03;23.42;;;13.65;;
23743;SDS011;12052;53.478;10.182;2023-04-15T12:03:35;25.33;;;14.00;;
23743;SDS011;12052;53.478;10.182;2023-04-15T12:14:08;19.77;;;12.73;;
23743;SDS011;12052;53.478;10.182;2023-04-15T12:17:05;21.60;;;13.45;;
23743;SDS011;12052;53.478;10.182;2023-04-15T12:22:04;19.40;;;11.77;;
23743;SDS011;12052;53.478;10.182;2023-04-15T12:24:33;18.88;;;10.77;;
23743;SDS011;12052;53.478;10.182;2023-04-15T12:27:03;18.45;;;11.20;;
23743;SDS011;12052;53.478;10.182;2023-04-15T12:29:30;20.13;;;11.70;;
23743;SDS011;12052;53.478;10.182;2023-04-15T12:32:07;17.45;;;11.30;;
23743;SDS011;12052;53.478;10.182;2023-04-15T12:34:38;21.05;;;11.70;;
23743;SDS011;12052;53.478;10.182;2023-04-15T12:37:10;22.60;;;11.82;;
23743;SDS011;12052;53.478;10.182;2023-04-15T12:39:43;19.73;;;11.32;;
23743;SDS011;12052;53.478;10.182;2023-04-15T12:42:10;18.88;;;11.30;;
23743;SDS011;12052;53.478;10.182;2023-04-15T12:44:36;19.58;;;11.52;;
23743;SDS011;12052;53.478;10.182;2023-04-15T12:47:03;15.80;;;11.00;;
23743;SDS011;12052;53.478;10.182;2023-04-15T12:49:29;20.20;;;10.50;;
23743;SDS011;12052;53.478;10.182;2023-04-15T12:51:57;17.98;;;9.93;;
23743;SDS011;12052;53.478;10.182;2023-04-15T12:54:30;17.25;;;11.25;;
23743;SDS011;12052;53.478;10.182;2023-04-15T12:56:56;18.45;;;11.27;;
23743;SDS011;12052;53.478;10.182;2023-04-15T12:59:23;18.83;;;10.27;;
23743;SDS011;12052;53.478;10.182;2023-04-15T13:01:49;19.33;;;11.38;;
23743;SDS011;12052;53.478;10.182;2023-04-15T13:04:17;18.98;;;11.43;;
23743;SDS011;12052;53.478;10.182;2023-04-15T13:06:44;19.00;;;10.98;;
23743;SDS011;12052;53.478;10.182;2023-04-15T13:09:10;20.17;;;10.73;;
23743;SDS011;12052;53.478;10.182;2023-04-15T13:11:36;21.17;;;12.02;;
23743;SDS011;12052;53.478;10.182;2023-04-15T13:14:05;21.98;;;12.00;;
23743;SDS011;12052;53.478;10.182;2023-04-15T13:16:32;17.73;;;11.73;;
23743;SDS011;12052;53.478;10.182;2023-04-15T13:18:58;25.48;;;12.63;;
23743;SDS011;12052;53.478;10.182;2023-04-15T13:21:24;19.65;;;11.88;;
23743;SDS011;12052;53.478;10.182;2023-04-15T13:23:51;21.83;;;12.60;;
23743;SDS011;12052;53.478;10.182;2023-04-15T13:26:17;23.50;;;12.98;;
23743;SDS011;12052;53.478;10.182;2023-04-15T13:28:42;21.73;;;13.18;;
23743;SDS011;12052;53.478;10.182;2023-04-15T13:31:08;23.45;;;12.85;;
23743;SDS011;12052;53.478;10.182;2023-04-15T13:33:34;20.40;;;12.23;;
23743;SDS011;12052;53.478;10.182;2023-04-15T13:36:00;21.60;;;11.75;;
23743;SDS011;12052;53.478;10.182;2023-04-15T13:38:26;22.50;;;12.55;;
23743;SDS011;12052;53.478;10.182;2023-04-15T13:40:51;21.45;;;11.98;;
23743;SDS011;12052;53.478;10.182;2023-04-15T13:43:17;18.80;;;11.88;;
23743;SDS011;12052;53.478;10.182;2023-04-15T13:45:43;19.25;;;11.70;;
23743;SDS011;12052;53.478;10.182;2023-04-15T13:48:09;19.77;;;11.55;;
23743;SDS011;12052;53.478;10.182;2023-04-15T13:50:34;19.90;;;11.48;;
23743;SDS011;12052;53.478;10.182;2023-04-15T13:53:00;17.38;;;11.95;;
23743;SDS011;12052;53.478;10.182;2023-04-15T13:55:26;16.58;;;10.90;;
23743;SDS011;12052;53.478;10.182;2023-04-15T13:57:51;19.13;;;11.25;;
23743;SDS011;12052;53.478;10.182;2023-04-15T14:00:17;17.77;;;11.15;;
23743;SDS011;12052;53.478;10.182;2023-04-15T14:02:43;17.17;;;10.68;;
23743;SDS011;12052;53.478;10.182;2023-04-15T14:05:10;19.33;;;11.52;;
23743;SDS011;12052;53.478;10.182;2023-04-15T14:07:36;17.83;;;10.27;;
23743;SDS011;12052;53.478;10.182;2023-04-15T14:10:01;20.70;;;11.48;;
23743;SDS011;12052;53.478;10.182;2023-04-15T14:12:33;17.67;;;10.63;;
23743;SDS011;12052;53.478;10.182;2023-04-15T14:14:59;16.17;;;10.18;;
23743;SDS011;12052;53.478;10.182;2023-04-15T14:17:31;16.63;;;9.38;;
23743;SDS011;12052;53.478;10.182;2023-04-15T14:19:58;13.10;;;9.27;;
23743;SDS011;12052;53.478;10.182;2023-04-15T14:23:28;15.85;;;9.38;;
23743;SDS011;12052;53.478;10.182;2023-04-15T14:26:15;15.52;;;9.20;;
23743;SDS011;12052;53.478;10.182;2023-04-15T14:29:04;19.83;;;9.35;;
23743;SDS011;12052;53.478;10.182;2023-04-15T14:35:43;17.40;;;9.13;;
23743;SDS011;12052;53.478;10.182;2023-04-15T14:38:38;15.05;;;9.95;;
23743;SDS011;12052;53.478;10.182;2023-04-15T14:41:29;16.70;;;9.25;;